Main page
METAR-TAF:

METAR-TAF

Airports :

Düsseldorf Airport

Düsseldorf, Germany

latitude: 51-18N, longitude: 006-46E, elevation: 45 m

Current weather observation

The report was made 39 minutes ago, at 20:50 UTC
Wind 15 kt from the West/Southwest
Temperature 9°C
Humidity 93%
Pressure 1006 hPa
Visibility 10 km or more
Scattered clouds at a height of 1400 ft
Scattered clouds at a height of 3400 ft
light rain

METAR: EDDL 162050Z 24015KT 9999 -RA SCT014 SCT034 09/08 Q1006 TEMPO RA

Time: 22:29 (21:29 UTC)

Forecast

The report was made 2 hours and 7 minutes ago, at 19:22 UTC
Forecast valid from 16 at 19 UTC to 17 at 24 UTC
Wind 15 kt from the West with gusts up to 25 kt
Visibility 10 km or more
Broken clouds at a height of 3000 ft
Temporary
from 16 at 19 UTC to 16 at 24 UTC
rain
Temporary
from 17 at 14 UTC to 17 at 24 UTC
Broken clouds at a height of 2000 ft, Cumulonimbus.
rain showers

TAF: EDDL 161922Z 1619/1724 28015G25KT 9999 BKN030 TEMPO 1619/1624 RA TEMPO 1714/1724 SHRA BKN020CB

Weather observations and forecasts of more than 4000 airports (METAR and TAF reports).

The available stations are represented by yellow and red dots on the map.

Hover mouse over dot to see the name of the station.

Then click to see weather observations and forecasts.

To change the map : click on the green buttons with a black cross to zoom in, on the green button with a dash to zoom out, or on the green arrows for adjacent maps.


METAR-TAF: